Time;durP1;ratioP1;P1;durP2;ratioP2;P2;SDS_P1;SDS_P2;PMS_P1;PMS_P2;Temp;Humidity;BMP_temperature;BMP_pressure;BME280_temperature;BME280_humidity;BME280_pressure;Samples;Min_cycle;Max_cycle;Signal;HPM_P1;HPM_P2
2021/07/06 00:00:27;;;;;;;3.73;3.07;;;16.10;99.90;15.60;96684.00;;;;5086001;28;20202;-57
2021/07/06 00:03:16;;;;;;;3.50;3.20;;;16.10;99.90;15.20;96689.00;;;;5085944;28;20223;-61
2021/07/06 00:06:06;;;;;;;9.23;3.30;;;15.90;99.90;15.30;96690.00;;;;5086324;28;20211;-64
2021/07/06 00:08:55;;;;;;;3.73;3.03;;;15.90;99.90;15.40;96686.00;;;;5086473;28;20203;-63
2021/07/06 00:11:45;;;;;;;3.43;2.87;;;15.80;99.90;15.50;96690.00;;;;5085420;28;20223;-62
2021/07/06 00:14:34;;;;;;;3.93;2.93;;;15.80;99.90;15.70;96698.00;;;;5078180;28;20224;-61
2021/07/06 00:17:23;;;;;;;3.57;3.27;;;15.90;99.90;15.70;96693.00;;;;5082357;28;20205;-63
2021/07/06 00:20:14;;;;;;;2.93;2.63;;;15.90;99.90;15.60;96691.00;;;;5085289;28;20219;-64
2021/07/06 00:23:04;;;;;;;2.60;2.40;;;15.90;99.90;15.40;96697.00;;;;5087014;28;20226;-60
2021/07/06 00:25:53;;;;;;;3.57;3.27;;;15.90;99.90;15.00;96698.00;;;;5084615;28;20203;-62
2021/07/06 00:28:42;;;;;;;3.80;3.33;;;15.80;99.90;14.90;96699.00;;;;5085742;28;20623;-62
2021/07/06 00:31:31;;;;;;;3.43;3.07;;;15.60;99.90;15.10;96699.00;;;;5085066;28;20238;-61
2021/07/06 00:34:20;;;;;;;3.30;2.70;;;15.50;99.90;15.20;96701.00;;;;5076725;28;20638;-66
2021/07/06 00:37:09;;;;;;;5.93;3.30;;;15.50;99.90;15.20;96688.00;;;;5085819;28;20772;-61
2021/07/06 00:39:59;;;;;;;5.30;3.07;;;15.50;99.90;15.30;96697.00;;;;5085022;28;20207;-64
2021/07/06 00:42:50;;;;;;;3.37;2.80;;;15.60;99.90;15.20;96703.00;;;;5086230;28;20223;-63
2021/07/06 00:45:39;;;;;;;3.63;3.33;;;15.50;99.90;15.00;96719.00;;;;5085000;28;20568;-61
2021/07/06 00:48:28;;;;;;;3.60;3.30;;;15.50;99.90;14.70;96718.00;;;;5084807;28;20223;-62
2021/07/06 00:51:17;;;;;;;3.83;3.43;;;15.40;99.90;14.80;96708.00;;;;5084389;28;20206;-61
2021/07/06 00:54:07;;;;;;;3.87;3.57;;;15.30;99.90;14.70;96720.00;;;;5087407;28;20689;-64
2021/07/06 00:56:58;;;;;;;4.17;3.50;;;15.30;99.90;14.80;96716.00;;;;5081988;28;20207;-61
2021/07/06 00:59:47;;;;;;;4.60;3.43;;;15.20;99.90;14.70;96715.00;;;;5084225;28;20207;-63
2021/07/06 01:02:36;;;;;;;5.70;3.30;;;15.20;99.90;14.70;96712.00;;;;5086166;28;20269;-64
2021/07/06 01:05:27;;;;;;;5.27;3.30;;;15.20;99.90;14.60;96711.00;;;;5084761;28;20203;-65
2021/07/06 01:08:15;;;;;;;3.67;3.27;;;15.10;99.90;14.60;96716.00;;;;5085444;28;20241;-65
2021/07/06 01:11:05;;;;;;;4.17;3.77;;;15.10;99.90;14.50;96712.00;;;;5084576;28;20215;-57
2021/07/06 01:13:56;;;;;;;3.17;2.97;;;15.00;99.90;14.50;96710.00;;;;5082520;28;20203;-59
2021/07/06 01:16:46;;;;;;;3.63;3.33;;;15.00;99.90;14.50;96718.00;;;;5085109;28;20206;-62
2021/07/06 01:19:35;;;;;;;4.87;3.60;;;14.90;99.90;14.70;96717.00;;;;5070267;28;20583;-56
2021/07/06 01:22:30;;;;;;;4.20;3.80;;;14.90;99.90;14.70;96710.00;;;;5085637;28;20223;-60
2021/07/06 01:25:19;;;;;;;3.40;3.10;;;15.00;99.90;14.70;96698.00;;;;5085212;28;20207;-63
2021/07/06 01:28:08;;;;;;;4.13;3.23;;;15.00;99.90;14.80;96700.00;;;;5085775;28;20227;-64
2021/07/06 01:30:57;;;;;;;3.53;3.23;;;15.00;99.90;14.60;96698.00;;;;5084012;28;20195;-63
2021/07/06 01:33:46;;;;;;;3.30;2.97;;;15.00;99.90;14.80;96704.00;;;;5086225;28;20210;-63
2021/07/06 01:36:35;;;;;;;3.07;2.70;;;15.00;99.90;14.90;96701.00;;;;5085020;28;20211;-59
2021/07/06 01:39:29;;;;;;;3.47;3.13;;;15.10;99.90;15.10;96701.00;;;;5083337;28;20199;-61
2021/07/06 01:42:19;;;;;;;3.73;3.13;;;15.20;99.90;15.00;96698.00;;;;5077282;28;20233;-64
2021/07/06 01:45:10;;;;;;;3.07;2.87;;;15.30;99.90;14.60;96701.00;;;;5084716;28;20207;-61
2021/07/06 01:48:02;;;;;;;3.20;2.90;;;15.20;99.90;14.40;96701.00;;;;5077467;28;20583;-64
2021/07/06 01:50:51;;;;;;;3.13;2.83;;;15.10;99.90;14.50;96693.00;;;;5081799;28;20207;-66
2021/07/06 01:53:39;;;;;;;3.43;3.13;;;15.00;99.90;14.30;96693.00;;;;5082451;28;20203;-59
2021/07/06 01:56:30;;;;;;;3.40;3.10;;;14.90;99.90;14.30;96694.00;;;;5089648;28;20209;-65
2021/07/06 01:59:19;;;;;;;3.23;2.93;;;14.80;99.90;14.30;96695.00;;;;5085273;28;20670;-65
2021/07/06 02:02:07;;;;;;;3.47;3.17;;;14.80;99.90;14.20;96689.00;;;;5071057;28;20241;-59
2021/07/06 02:04:56;;;;;;;4.07;3.77;;;14.80;99.90;14.00;96698.00;;;;5085549;28;21904;-64
2021/07/06 02:07:47;;;;;;;4.07;3.67;;;14.70;99.90;14.00;96691.00;;;;5085263;28;20234;-61
2021/07/06 02:10:37;;;;;;;5.00;3.47;;;14.60;99.90;14.00;96692.00;;;;5071612;28;20612;-61
2021/07/06 02:13:27;;;;;;;4.00;3.50;;;14.50;99.90;13.90;96678.00;;;;5084751;28;20211;-66
2021/07/06 02:16:16;;;;;;;5.37;3.43;;;14.50;99.90;13.80;96701.00;;;;5073080;28;20202;-61
2021/07/06 02:19:05;;;;;;;3.73;3.43;;;14.40;99.90;13.70;96697.00;;;;5085168;28;20219;-63
2021/07/06 02:21:54;;;;;;;6.17;3.47;;;14.30;99.90;13.80;96694.00;;;;5085430;28;20230;-66
2021/07/06 02:24:44;;;;;;;4.10;3.70;;;14.30;99.90;13.80;96699.00;;;;5088462;28;20207;-64
2021/07/06 02:27:33;;;;;;;4.40;4.00;;;14.30;99.90;13.90;96700.00;;;;5088497;28;20207;-59
2021/07/06 02:30:25;;;;;;;4.03;3.50;;;14.30;99.90;13.90;96698.00;;;;5088440;28;20208;-63
2021/07/06 02:33:14;;;;;;;4.13;3.67;;;14.30;99.90;14.00;96711.00;;;;5088638;28;20234;-60
2021/07/06 02:36:07;;;;;;;3.90;3.60;;;14.30;99.90;14.00;96700.00;;;;5077160;28;20203;-65
2021/07/06 02:38:56;;;;;;;3.40;3.10;;;14.40;99.90;14.10;96704.00;;;;5088676;28;20623;-65
2021/07/06 02:41:45;;;;;;;3.90;3.07;;;14.40;99.90;14.10;96703.00;;;;5087370;28;20729;-62
2021/07/06 02:44:33;;;;;;;4.23;3.83;;;14.40;99.90;13.80;96701.00;;;;5088511;28;20206;-60
2021/07/06 02:47:24;;;;;;;4.20;3.63;;;14.40;99.90;13.90;96699.00;;;;5087184;28;20211;-61
2021/07/06 02:50:15;;;;;;;4.17;3.73;;;14.30;99.90;13.80;96711.00;;;;5088417;28;20199;-64
2021/07/06 02:53:04;;;;;;;4.20;3.73;;;14.30;99.90;13.90;96712.00;;;;5087436;28;20710;-63
2021/07/06 02:55:53;;;;;;;3.90;3.43;;;14.20;99.90;13.90;96696.00;;;;5082913;28;20202;-62
2021/07/06 02:58:41;;;;;;;5.67;3.63;;;14.30;99.90;13.80;96707.00;;;;5082137;28;20218;-59
2021/07/06 03:01:30;;;;;;;3.70;3.23;;;14.30;99.90;13.90;96709.00;;;;5087981;28;20223;-62
2021/07/06 03:04:21;;;;;;;3.10;2.80;;;14.30;99.90;13.90;96703.00;;;;5089119;28;20602;-61
2021/07/06 03:07:09;;;;;;;4.07;3.40;;;14.30;99.90;13.70;96709.00;;;;5088675;28;20213;-63
2021/07/06 03:10:00;;;;;;;4.23;3.60;;;14.20;99.90;13.70;96697.00;;;;5086391;28;20223;-64
2021/07/06 03:12:49;;;;;;;3.80;3.43;;;14.20;99.90;13.80;96702.00;;;;5087198;28;20706;-61
2021/07/06 03:15:38;;;;;;;5.47;3.30;;;14.20;99.90;13.70;96701.00;;;;5073413;28;20192;-62
2021/07/06 03:18:27;;;;;;;4.90;3.40;;;14.20;99.90;13.50;96701.00;;;;5087689;28;20210;-62
2021/07/06 03:21:17;;;;;;;5.73;3.57;;;14.10;99.90;13.60;96697.00;;;;5082366;28;20716;-63
2021/07/06 03:24:08;;;;;;;3.70;3.40;;;14.10;99.90;13.60;96699.00;;;;5086203;28;20214;-60
2021/07/06 03:26:57;;;;;;;4.37;3.73;;;14.00;99.90;13.50;96701.00;;;;5086465;28;20207;-60
2021/07/06 03:29:46;;;;;;;3.73;3.33;;;14.00;99.90;13.50;96702.00;;;;5086076;28;20226;-60
2021/07/06 03:32:34;;;;;;;5.10;3.57;;;14.00;99.90;13.40;96708.00;;;;5086662;28;20226;-58
2021/07/06 03:35:25;;;;;;;5.37;3.43;;;13.90;99.90;13.20;96706.00;;;;5087181;28;20380;-62
2021/07/06 03:38:15;;;;;;;3.93;3.53;;;13.80;99.90;13.20;96713.00;;;;5088064;28;20199;-62
2021/07/06 03:41:04;;;;;;;4.50;3.50;;;13.70;99.90;13.20;96707.00;;;;5086622;28;20199;-61
2021/07/06 03:43:53;;;;;;;4.27;3.27;;;13.80;99.90;13.10;96713.00;;;;5087997;28;20207;-60
2021/07/06 03:46:42;;;;;;;5.50;3.23;;;13.70;99.90;13.30;96722.00;;;;5087506;28;20214;-63
2021/07/06 03:49:31;;;;;;;4.33;3.50;;;13.70;99.90;13.30;96721.00;;;;5086180;28;20226;-60
2021/07/06 03:52:20;;;;;;;3.67;3.37;;;13.70;99.90;13.30;96712.00;;;;5101864;28;20280;-61
2021/07/06 03:55:14;;;;;;;3.93;3.53;;;13.70;99.90;13.30;96715.00;;;;5106541;28;20717;-64
2021/07/06 03:58:02;;;;;;;4.17;3.47;;;13.70;99.90;13.40;96720.00;;;;5105702;28;20206;-66
2021/07/06 04:00:51;;;;;;;5.97;3.97;;;13.70;99.90;13.30;96719.00;;;;5106676;28;20190;-66
2021/07/06 04:03:40;;;;;;;3.73;3.40;;;13.80;99.90;13.40;96724.00;;;;5106627;28;20203;-62
2021/07/06 04:06:35;;;;;;;4.60;3.60;;;13.80;99.90;13.30;96716.00;;;;5107708;28;20222;-62
2021/07/06 04:09:23;;;;;;;3.40;3.10;;;13.80;99.90;13.30;96723.00;;;;5106473;28;20217;-61
2021/07/06 04:12:14;;;;;;;4.33;3.93;;;13.80;99.90;13.30;96720.00;;;;5105562;28;20597;-65
2021/07/06 04:15:05;;;;;;;6.13;3.37;;;13.80;99.90;13.40;96717.00;;;;5101383;28;20206;-64
2021/07/06 04:17:53;;;;;;;3.93;3.57;;;13.80;99.90;13.30;96720.00;;;;5087168;28;20207;-62
2021/07/06 04:20:42;;;;;;;5.03;3.70;;;13.80;99.90;13.20;96718.00;;;;5102851;28;20207;-60
2021/07/06 04:23:31;;;;;;;4.53;3.73;;;13.70;99.90;13.30;96725.00;;;;5105936;28;20585;-66
2021/07/06 04:26:20;;;;;;;4.70;3.40;;;13.70;99.90;13.20;96724.00;;;;5095729;28;20202;-64
2021/07/06 04:29:10;;;;;;;4.67;4.27;;;13.70;99.90;13.40;96721.00;;;;5105914;28;20260;-64
2021/07/06 04:31:59;;;;;;;3.97;3.10;;;13.70;99.90;13.60;96710.00;;;;5106012;28;20895;-65
2021/07/06 04:34:49;;;;;;;4.23;3.83;;;13.80;99.90;13.70;96724.00;;;;5106905;28;20549;-62
2021/07/06 04:37:38;;;;;;;3.70;3.40;;;13.90;99.90;13.70;96724.00;;;;5106243;28;20203;-61
2021/07/06 04:40:27;;;;;;;3.70;3.40;;;14.00;99.90;13.80;96725.00;;;;5104596;28;20209;-64
2021/07/06 04:43:16;;;;;;;4.47;3.43;;;14.10;99.90;14.00;96721.00;;;;5105173;28;20773;-63
2021/07/06 04:46:07;;;;;;;3.97;3.67;;;14.20;99.90;14.20;96723.00;;;;5103957;28;20210;-60
2021/07/06 04:48:56;;;;;;;5.50;3.80;;;14.30;99.90;14.40;96721.00;;;;5105097;28;20202;-65
2021/07/06 04:51:45;;;;;;;3.67;3.37;;;14.40;99.90;14.40;96722.00;;;;5104735;28;20218;-61
2021/07/06 04:54:34;;;;;;;3.10;2.80;;;14.60;99.90;14.50;96722.00;;;;5105081;28;20195;-58
2021/07/06 04:57:22;;;;;;;4.57;4.13;;;14.70;99.90;14.70;96710.00;;;;5105550;28;20206;-63
2021/07/06 05:00:13;;;;;;;4.73;4.20;;;14.80;99.90;15.00;96706.00;;;;5103947;28;20205;-61
2021/07/06 05:03:03;;;;;;;4.03;3.47;;;15.00;99.90;15.20;96706.00;;;;5102211;28;20234;-66
2021/07/06 05:05:52;;;;;;;4.33;3.10;;;15.20;99.90;15.30;96711.00;;;;5100888;28;20705;-63
2021/07/06 05:08:41;;;;;;;3.40;3.03;;;15.30;99.90;15.30;96723.00;;;;5094144;28;20206;-62
2021/07/06 05:11:31;;;;;;;4.87;3.47;;;15.40;99.90;15.60;96719.00;;;;5104186;28;20234;-63
2021/07/06 05:14:19;;;;;;;5.00;3.17;;;15.60;99.90;15.60;96715.00;;;;5099481;28;20206;-60
2021/07/06 05:17:08;;;;;;;3.50;3.20;;;15.70;99.90;15.80;96720.00;;;;5101735;28;20199;-60
2021/07/06 05:19:59;;;;;;;5.73;4.07;;;15.90;99.90;16.00;96720.00;;;;5096520;28;20234;-60
2021/07/06 05:22:48;;;;;;;5.37;3.83;;;16.00;99.90;16.20;96710.00;;;;5093954;28;20296;-63
2021/07/06 05:25:37;;;;;;;6.23;4.37;;;16.20;99.90;16.30;96709.00;;;;5104300;28;20194;-63
2021/07/06 05:28:26;;;;;;;5.37;3.53;;;16.30;99.90;16.60;96706.00;;;;5103948;28;20195;-61
2021/07/06 05:31:15;;;;;;;3.80;2.97;;;16.50;99.90;16.80;96708.00;;;;5103286;28;20222;-65
2021/07/06 05:34:04;;;;;;;5.20;3.07;;;16.70;99.90;17.00;96702.00;;;;5091500;28;20207;-60
2021/07/06 05:36:54;;;;;;;4.73;3.63;;;16.80;99.90;17.30;96701.00;;;;5103357;28;20210;-64
2021/07/06 05:39:44;;;;;;;3.90;3.50;;;17.00;99.90;17.40;96698.00;;;;5104003;28;20763;-62
2021/07/06 05:42:35;;;;;;;7.77;4.00;;;17.20;99.90;17.60;96697.00;;;;5104185;28;20218;-62
2021/07/06 05:45:24;;;;;;;5.73;3.63;;;17.50;99.90;17.80;96702.00;;;;5104876;28;20206;-63
2021/07/06 05:48:14;;;;;;;4.13;3.70;;;17.60;99.90;17.90;96694.00;;;;5105672;28;20206;-64
2021/07/06 05:51:03;;;;;;;5.67;3.80;;;17.80;99.90;18.20;96690.00;;;;5104016;28;20693;-62
2021/07/06 05:53:53;;;;;;;5.67;3.33;;;18.00;99.90;18.30;96697.00;;;;5105883;28;20198;-66
2021/07/06 05:56:42;;;;;;;8.60;4.63;;;18.20;99.90;18.30;96691.00;;;;5107155;28;20206;-64
2021/07/06 05:59:31;;;;;;;7.87;4.40;;;18.30;99.90;18.40;96692.00;;;;5100304;28;20198;-65
2021/07/06 06:02:20;;;;;;;4.03;3.60;;;18.40;99.90;18.40;96700.00;;;;5101070;27;20309;-63
2021/07/06 06:05:10;;;;;;;6.87;3.73;;;18.50;99.90;18.60;96695.00;;;;5101536;28;20217;-61
2021/07/06 06:07:59;;;;;;;8.40;4.20;;;18.70;99.90;18.90;96687.00;;;;5106543;28;20218;-63
2021/07/06 06:10:49;;;;;;;4.20;3.60;;;18.80;99.90;19.00;96692.00;;;;5105288;28;20249;-64
2021/07/06 06:13:38;;;;;;;9.17;4.70;;;19.00;99.90;19.20;96698.00;;;;5102461;28;20207;-61
2021/07/06 06:16:27;;;;;;;4.70;4.10;;;19.20;99.90;19.40;96696.00;;;;5105561;28;20194;-63
2021/07/06 06:19:15;;;;;;;8.20;4.63;;;19.30;99.90;19.70;96695.00;;;;5092920;28;20235;-58
2021/07/06 06:22:05;;;;;;;6.00;4.50;;;19.50;99.90;19.90;96700.00;;;;5083067;28;20593;-65
2021/07/06 06:24:54;;;;;;;5.87;4.13;;;19.70;99.90;20.30;96698.00;;;;5082665;28;20203;-62
2021/07/06 06:27:44;;;;;;;5.97;4.17;;;19.90;99.90;20.50;96691.00;;;;5084030;28;20670;-66
2021/07/06 06:30:33;;;;;;;4.40;3.83;;;20.10;99.90;20.80;96691.00;;;;5083699;28;20215;-64
2021/07/06 06:33:22;;;;;;;3.67;3.37;;;20.40;99.90;21.10;96696.00;;;;5080194;28;20937;-66
2021/07/06 06:36:11;;;;;;;6.80;3.87;;;20.60;99.90;21.20;96700.00;;;;5100984;28;20574;-65
2021/07/06 06:39:01;;;;;;;8.07;4.10;;;20.80;99.90;21.50;96702.00;;;;5104516;28;20526;-64
2021/07/06 06:41:50;;;;;;;6.70;3.70;;;21.10;99.90;21.70;96701.00;;;;5096650;28;20219;-63
2021/07/06 06:44:40;;;;;;;4.73;3.90;;;21.30;99.90;21.90;96694.00;;;;5102116;28;20209;-61
2021/07/06 06:47:29;;;;;;;7.13;4.07;;;21.50;99.90;22.10;96695.00;;;;5079739;28;20212;-64
2021/07/06 06:50:18;;;;;;;7.20;3.73;;;21.70;99.90;22.30;96696.00;;;;5086286;28;20239;-62
2021/07/06 06:53:07;;;;;;;4.53;3.17;;;21.90;99.90;22.50;96686.00;;;;5093945;28;20215;-63
2021/07/06 06:55:56;;;;;;;6.87;4.40;;;22.10;99.90;22.70;96683.00;;;;5088471;28;20592;-65
2021/07/06 06:58:45;;;;;;;10.30;3.60;;;22.30;99.90;22.80;96690.00;;;;5081907;28;20203;-63
2021/07/06 07:01:37;;;;;;;7.43;3.37;;;22.50;99.90;23.00;96680.00;;;;5101126;28;20607;-65
2021/07/06 07:04:26;;;;;;;4.30;3.70;;;22.60;99.90;23.20;96686.00;;;;5089974;28;20199;-67
2021/07/06 07:07:15;;;;;;;4.83;3.40;;;22.80;99.90;23.40;96688.00;;;;5078091;28;20192;-60
2021/07/06 07:10:10;;;;;;;3.83;2.47;;;23.00;99.90;23.70;96693.00;;;;5089839;28;20242;-63
2021/07/06 07:12:59;;;;;;;6.27;3.87;;;23.20;99.90;23.90;96688.00;;;;5089130;28;20230;-63
2021/07/06 07:15:48;;;;;;;3.63;3.17;;;23.40;99.90;24.00;96687.00;;;;5086868;28;20721;-66
2021/07/06 07:18:38;;;;;;;4.50;2.40;;;23.60;99.90;24.20;96687.00;;;;5100376;28;20251;-63
2021/07/06 07:21:28;;;;;;;5.47;2.90;;;23.80;99.90;24.30;96686.00;;;;5097882;28;20232;-64
2021/07/06 07:24:17;;;;;;;3.10;2.40;;;24.00;99.90;24.50;96683.00;;;;5076489;28;20678;-64
2021/07/06 07:27:07;;;;;;;2.77;2.13;;;24.10;99.90;24.50;96682.00;;;;5081908;28;20203;-62
2021/07/06 07:29:57;;;;;;;2.93;2.30;;;24.30;99.90;24.80;96679.00;;;;5068381;28;20210;-64
2021/07/06 07:32:46;;;;;;;2.30;2.10;;;24.40;99.90;24.80;96665.00;;;;5091648;28;20239;-65
2021/07/06 07:35:37;;;;;;;2.33;2.13;;;24.50;99.90;25.00;96676.00;;;;5097066;28;20195;-65
2021/07/06 07:38:25;;;;;;;3.10;2.80;;;24.60;98.70;25.10;96666.00;;;;5079838;28;20199;-64
2021/07/06 07:41:14;;;;;;;3.83;2.20;;;24.70;98.20;25.30;96667.00;;;;5089823;28;20245;-64
2021/07/06 07:44:04;;;;;;;2.40;2.20;;;24.90;98.70;25.40;96671.00;;;;5090736;28;20214;-66
2021/07/06 07:46:53;;;;;;;2.33;2.13;;;25.10;97.60;25.40;96677.00;;;;5080921;28;20209;-66
2021/07/06 07:49:42;;;;;;;3.63;2.40;;;25.20;94.30;25.50;96664.00;;;;5083637;28;20237;-64
2021/07/06 07:52:34;;;;;;;5.93;2.50;;;25.30;92.90;25.40;96666.00;;;;5084106;28;20235;-63
2021/07/06 07:55:23;;;;;;;2.20;1.90;;;25.30;91.50;24.90;96669.00;;;;5086919;28;20207;-66
2021/07/06 07:58:12;;;;;;;2.00;1.83;;;25.40;83.30;25.40;96659.00;;;;5091814;28;20200;-63
2021/07/06 08:01:01;;;;;;;4.07;1.90;;;25.30;84.30;25.70;96651.00;;;;5079206;28;20215;-63
2021/07/06 08:03:50;;;;;;;2.93;2.27;;;25.40;84.80;25.60;96666.00;;;;5081849;28;20201;-66
2021/07/06 08:06:39;;;;;;;2.50;2.30;;;25.60;80.50;25.50;96656.00;;;;5085135;28;20201;-63
2021/07/06 08:09:29;;;;;;;2.03;1.90;;;25.60;78.40;25.50;96656.00;;;;5089316;28;20204;-64
2021/07/06 08:12:18;;;;;;;4.83;2.23;;;25.60;76.90;25.40;96657.00;;;;5080101;28;20244;-64
2021/07/06 08:15:08;;;;;;;3.73;2.43;;;25.60;79.10;25.80;96651.00;;;;5082512;28;20583;-63
2021/07/06 08:17:57;;;;;;;2.77;2.17;;;25.70;79.50;26.20;96658.00;;;;5078898;28;20212;-62
2021/07/06 08:20:46;;;;;;;3.53;2.07;;;25.80;80.70;26.40;96661.00;;;;5083627;28;20201;-63
2021/07/06 08:23:35;;;;;;;2.63;2.37;;;26.00;79.70;26.40;96654.00;;;;5082086;28;20306;-63
2021/07/06 08:26:25;;;;;;;3.30;2.53;;;26.10;79.10;26.70;96656.00;;;;5085441;28;20206;-65
2021/07/06 08:29:16;;;;;;;3.60;2.33;;;26.30;79.20;27.00;96654.00;;;;5086216;28;20221;-65
2021/07/06 08:32:06;;;;;;;3.20;2.40;;;26.50;78.50;27.10;96642.00;;;;5080965;28;20221;-67
2021/07/06 08:34:55;;;;;;;8.80;2.80;;;26.60;79.60;27.20;96650.00;;;;5103082;28;20208;-67
2021/07/06 08:37:44;;;;;;;3.30;2.40;;;26.80;77.80;26.80;96661.00;;;;5074529;28;20689;-63
2021/07/06 08:40:33;;;;;;;4.73;2.27;;;27.00;75.50;27.40;96649.00;;;;5079863;28;20209;-65
2021/07/06 08:43:23;;;;;;;7.43;2.40;;;27.10;78.00;27.40;96650.00;;;;5080776;28;20226;-64
2021/07/06 08:46:19;;;;;;;3.47;2.80;;;27.20;76.10;26.90;96642.00;;;;5089053;28;20579;-64
2021/07/06 08:49:10;;;;;;;4.83;2.60;;;27.20;75.10;27.30;96641.00;;;;5084788;28;20284;-66
2021/07/06 08:52:00;;;;;;;2.83;2.13;;;27.20;76.20;27.50;96653.00;;;;5082211;28;20701;-65
2021/07/06 08:54:50;;;;;;;4.33;2.27;;;27.20;76.10;27.10;96652.00;;;;5077924;28;20203;-64
2021/07/06 08:57:39;;;;;;;3.07;2.20;;;27.40;71.80;26.90;96655.00;;;;5082528;28;20218;-64
2021/07/06 09:00:30;;;;;;;2.57;2.20;;;27.30;71.30;27.30;96653.00;;;;5086812;28;20211;-66
2021/07/06 09:03:21;;;;;;;5.80;2.50;;;27.30;72.90;27.60;96648.00;;;;5087515;28;20229;-67
2021/07/06 09:06:11;;;;;;;3.67;2.17;;;27.30;71.40;27.80;96644.00;;;;5077050;28;20207;-66
2021/07/06 09:09:19;;;;;;;7.87;2.73;;;27.50;71.70;27.90;96642.00;;;;5075383;28;20207;-65
2021/07/06 09:12:12;;;;;;;3.17;2.40;;;27.60;69.70;27.80;96643.00;;;;5092348;28;20233;-68
2021/07/06 09:15:20;;;;;;;2.73;2.30;;;27.70;69.60;28.40;96646.00;;;;5087800;28;20602;-65
2021/07/06 09:18:15;;;;;;;2.50;2.30;;;27.90;70.70;28.70;96642.00;;;;5086183;28;20672;-64
2021/07/06 09:21:07;;;;;;;3.30;2.10;;;28.10;69.90;28.90;96647.00;;;;5090573;28;20602;-67
2021/07/06 09:23:56;;;;;;;2.20;2.00;;;28.30;68.20;28.70;96638.00;;;;5083312;28;20568;-65
2021/07/06 09:26:45;;;;;;;2.77;2.50;;;28.40;66.60;29.00;96641.00;;;;5090083;28;20209;-65
2021/07/06 09:29:34;;;;;;;2.80;2.30;;;28.60;66.30;28.70;96628.00;;;;5094014;28;20205;-65
2021/07/06 09:32:24;;;;;;;2.90;2.23;;;28.60;63.70;29.00;96640.00;;;;5080547;28;20230;-67
2021/07/06 09:35:22;;;;;;;1.97;1.77;;;28.40;65.10;29.40;96630.00;;;;5093446;28;20206;-66
2021/07/06 09:38:11;;;;;;;2.97;2.27;;;28.90;65.40;29.70;96632.00;;;;5096256;28;20210;-68
2021/07/06 09:40:59;;;;;;;3.27;2.30;;;29.10;64.30;29.80;96626.00;;;;5095935;28;20203;-63
2021/07/06 09:43:48;;;;;;;4.60;2.67;;;29.30;64.50;30.00;96624.00;;;;5081679;28;20211;-68
2021/07/06 09:46:48;;;;;;;3.70;2.43;;;29.50;62.40;30.10;96627.00;;;;5081422;28;20209;-65
2021/07/06 09:49:39;;;;;;;3.13;2.10;;;29.60;61.00;30.30;96635.00;;;;5097891;28;20201;-64
2021/07/06 09:52:35;;;;;;;6.90;1.97;;;29.80;60.20;30.70;96630.00;;;;5092169;28;20233;-64
2021/07/06 09:55:30;;;;;;;2.07;1.87;;;30.00;60.60;30.50;96624.00;;;;5085865;28;20221;-64
2021/07/06 09:58:19;;;;;;;4.60;1.87;;;30.10;58.10;30.60;96626.00;;;;5088144;28;20209;-64
2021/07/06 10:01:09;;;;;;;4.07;2.20;;;30.20;58.60;29.40;96621.00;;;;5080678;28;20702;-64
2021/07/06 10:03:59;;;;;;;4.50;2.23;;;30.10;57.70;30.00;96616.00;;;;5084470;28;20723;-63
2021/07/06 10:06:48;;;;;;;2.30;1.70;;;29.90;58.20;30.10;96614.00;;;;5092827;28;20202;-64
2021/07/06 10:09:39;;;;;;;2.83;1.70;;;30.00;58.10;28.50;96603.00;;;;5089463;28;20208;-68
2021/07/06 10:12:28;;;;;;;1.90;1.80;;;29.40;57.50;29.90;96609.00;;;;5073870;28;20371;-65
2021/07/06 10:15:19;;;;;;;2.03;1.63;;;29.40;59.20;29.50;96606.00;;;;5080686;28;20202;-64
2021/07/06 10:18:08;;;;;;;2.60;2.20;;;29.60;58.00;29.70;96608.00;;;;5079352;28;20211;-68
2021/07/06 10:20:59;;;;;;;2.83;1.83;;;29.60;59.20;30.40;96604.00;;;;5083094;28;20212;-62
2021/07/06 10:23:50;;;;;;;2.83;2.03;;;29.80;59.40;29.80;96598.00;;;;5091776;28;20201;-67
2021/07/06 10:26:41;;;;;;;2.93;1.87;;;29.90;58.80;29.90;96607.00;;;;5084351;28;20204;-65
2021/07/06 10:29:33;;;;;;;2.97;1.90;;;30.00;57.80;30.30;96598.00;;;;5083342;28;20210;-66
2021/07/06 10:32:40;;;;;;;2.00;1.90;;;30.10;58.40;30.50;96596.00;;;;5078029;28;20235;-66
2021/07/06 10:35:52;;;;;;;1.80;1.70;;;30.10;57.90;31.20;96584.00;;;;5075836;28;20255;-68
2021/07/06 10:38:48;;;;;;;1.70;1.60;;;30.40;58.00;30.70;96586.00;;;;5083494;28;20208;-66
2021/07/06 10:41:58;;;;;;;2.33;2.13;;;30.50;57.30;30.10;96588.00;;;;5075293;28;20691;-66
2021/07/06 10:44:47;;;;;;;2.72;2.08;;;30.50;57.40;30.20;96582.00;;;;5086065;28;20212;-65
2021/07/06 10:47:38;;;;;;;2.37;1.77;;;30.40;57.60;31.00;96593.00;;;;5091127;28;20220;-66
2021/07/06 10:50:47;;;;;;;2.25;2.10;;;30.50;57.70;31.10;96573.00;;;;5097973;28;20206;-66
2021/07/06 10:53:36;;;;;;;1.97;1.73;;;30.70;56.80;31.60;96571.00;;;;5089964;28;20701;-64
2021/07/06 10:56:33;;;;;;;3.33;1.73;;;31.00;57.50;29.70;96565.00;;;;5089786;28;20709;-65
2021/07/06 10:59:24;;;;;;;1.95;1.85;;;30.90;55.80;30.70;96565.00;;;;5101259;28;20219;-67
2021/07/06 11:02:22;;;;;;;1.67;1.40;;;30.70;56.20;31.70;96560.00;;;;5085442;28;20228;-66
2021/07/06 11:05:11;;;;;;;2.60;1.95;;;30.80;56.30;31.90;96553.00;;;;5098868;28;20223;-64
2021/07/06 11:08:00;;;;;;;5.25;2.10;;;31.10;55.70;30.70;96544.00;;;;5078791;28;20203;-65
2021/07/06 11:10:51;;;;;;;2.87;1.97;;;31.10;54.40;31.60;96550.00;;;;5075770;28;20211;-67
2021/07/06 11:13:39;;;;;;;1.90;1.80;;;31.00;56.40;31.60;96546.00;;;;5089498;28;20236;-66
2021/07/06 11:16:39;;;;;;;1.65;1.55;;;31.20;54.60;31.20;96555.00;;;;5088898;28;20224;-65
2021/07/06 11:19:34;;;;;;;4.28;2.63;;;31.30;54.90;31.50;96545.00;;;;5082837;28;20339;-68
2021/07/06 11:22:39;;;;;;;1.73;1.63;;;31.40;54.00;31.30;96538.00;;;;5099953;28;20232;-65
2021/07/06 11:25:37;;;;;;;2.20;2.10;;;31.40;53.80;32.10;96538.00;;;;5104363;28;20202;-66
2021/07/06 11:28:26;;;;;;;2.28;1.98;;;31.40;53.80;32.80;96544.00;;;;5102522;28;20575;-68
2021/07/06 11:31:19;;;;;;;3.28;2.15;;;31.70;54.30;33.00;96541.00;;;;5086558;28;20583;-66
2021/07/06 11:34:21;;;;;;;1.70;1.60;;;32.00;54.00;32.40;96539.00;;;;5100681;28;20218;-69
2021/07/06 11:37:13;;;;;;;2.63;2.05;;;32.20;53.30;32.30;96547.00;;;;5084272;28;20510;-66
2021/07/06 11:40:03;;;;;;;2.00;1.58;;;32.30;52.90;32.60;96527.00;;;;5077358;28;20207;-69
2021/07/06 11:42:53;;;;;;;2.13;1.92;;;32.30;53.10;32.50;96525.00;;;;5079923;28;20228;-65
2021/07/06 11:45:42;;;;;;;2.10;1.90;;;32.20;52.60;33.00;96531.00;;;;5097722;28;20221;-66
2021/07/06 11:48:34;;;;;;;2.38;1.70;;;32.40;52.70;32.10;96529.00;;;;5086957;28;20206;-66
2021/07/06 11:51:25;;;;;;;4.25;2.00;;;32.20;53.10;31.60;96520.00;;;;5089459;28;20926;-66
2021/07/06 11:54:14;;;;;;;2.67;1.58;;;32.20;53.10;30.90;96512.00;;;;5088413;28;20285;-68
2021/07/06 11:57:06;;;;;;;1.88;1.60;;;32.00;52.80;31.40;96494.00;;;;5095950;28;20213;-68
2021/07/06 11:59:54;;;;;;;2.42;1.90;;;31.90;53.20;31.10;96501.00;;;;5080428;28;20213;-68
2021/07/06 12:02:43;;;;;;;2.47;2.28;;;31.50;53.80;32.90;96498.00;;;;5066910;28;20230;-70
2021/07/06 12:05:32;;;;;;;2.63;1.85;;;31.70;55.00;33.50;96498.00;;;;5066569;28;20215;-66
2021/07/06 12:08:26;;;;;;;1.83;1.65;;;32.20;54.70;33.60;96495.00;;;;5079378;28;20217;-66
2021/07/06 12:11:16;;;;;;;1.85;1.75;;;32.50;54.00;34.20;96506.00;;;;5094359;28;20212;-67
2021/07/06 12:14:05;;;;;;;2.50;1.95;;;32.90;53.80;34.30;96499.00;;;;5080617;28;20230;-68
2021/07/06 12:16:54;;;;;;;1.98;1.80;;;33.30;53.30;31.70;96501.00;;;;5083535;28;20208;-65
2021/07/06 12:19:43;;;;;;;3.53;2.15;;;32.80;52.00;33.20;96485.00;;;;5096742;28;20929;-67
2021/07/06 12:22:32;;;;;;;2.05;1.67;;;33.00;53.00;33.50;96486.00;;;;5097155;28;20231;-65
2021/07/06 12:25:23;;;;;;;1.50;1.40;;;33.00;53.00;32.90;96488.00;;;;5093493;28;20205;-66
2021/07/06 12:28:12;;;;;;;2.28;1.77;;;33.10;52.10;32.70;96479.00;;;;5082892;28;20198;-67
2021/07/06 12:31:32;;;;;;;1.80;1.70;;;33.20;51.70;32.50;96470.00;;;;5084130;28;20206;-64
2021/07/06 12:34:21;;;;;;;2.15;1.95;;;33.00;51.80;33.80;96478.00;;;;5091121;28;20217;-65
2021/07/06 12:37:14;;;;;;;1.88;1.77;;;32.90;53.30;34.90;96497.00;;;;5095462;28;20203;-68